Time;durP1;ratioP1;P1;durP2;ratioP2;P2;SDS_P1;SDS_P2;PMS_P1;PMS_P2;Temp;Humidity;BMP_temperature;BMP_pressure;BME280_temperature;BME280_humidity;BME280_pressure;Samples;Min_cycle;Max_cycle;Signal;HPM_P1;HPM_P2
2022/07/22 00:02:20;;;;;;;8.23;2.58;;;15.70;99.90;;;;;;5070198;28;20140;-51
2022/07/22 00:04:45;;;;;;;9.25;2.75;;;15.80;99.90;;;;;;5069416;28;21216;-49
2022/07/22 00:07:11;;;;;;;8.02;2.60;;;15.90;99.90;;;;;;5069909;28;20064;-50
2022/07/22 00:09:36;;;;;;;12.32;3.05;;;15.80;99.90;;;;;;5070406;28;20037;-53
2022/07/22 00:12:02;;;;;;;12.38;2.88;;;15.80;99.90;;;;;;5070295;28;20036;-51
2022/07/22 00:14:28;;;;;;;11.40;2.80;;;15.80;99.90;;;;;;5069902;28;20449;-53
2022/07/22 00:16:54;;;;;;;7.43;2.75;;;15.90;99.90;;;;;;5070236;28;20032;-49
2022/07/22 00:19:19;;;;;;;12.18;3.25;;;15.90;99.90;;;;;;5069255;28;20037;-49
2022/07/22 00:21:45;;;;;;;7.45;2.50;;;15.90;99.90;;;;;;5069982;28;20043;-53
2022/07/22 00:24:11;;;;;;;8.50;2.40;;;15.80;99.90;;;;;;5070138;28;20046;-49
2022/07/22 00:26:36;;;;;;;7.45;2.40;;;15.90;99.90;;;;;;5070260;28;20040;-54
2022/07/22 00:29:02;;;;;;;9.00;2.70;;;15.80;99.90;;;;;;5069036;28;20041;-52
2022/07/22 00:31:28;;;;;;;9.85;2.75;;;15.70;99.90;;;;;;5070260;28;20044;-50
2022/07/22 00:33:53;;;;;;;8.10;2.70;;;15.90;99.90;;;;;;5069895;28;20041;-50
2022/07/22 00:36:19;;;;;;;6.85;2.38;;;15.80;99.90;;;;;;5068864;28;20047;-48
2022/07/22 00:38:45;;;;;;;8.45;2.60;;;15.80;99.90;;;;;;5069905;28;20399;-49
2022/07/22 00:41:10;;;;;;;11.57;2.90;;;15.70;99.90;;;;;;5070032;28;20127;-52
2022/07/22 00:43:51;;;;;;;10.63;2.58;;;15.70;99.90;;;;;;5070123;28;20464;-49
2022/07/22 00:46:17;;;;;;;8.45;2.45;;;15.80;99.90;;;;;;5069811;28;20044;-49
2022/07/22 00:48:42;;;;;;;9.57;2.70;;;15.80;99.90;;;;;;5068422;28;20375;-51
2022/07/22 00:51:08;;;;;;;11.57;2.78;;;15.70;99.90;;;;;;5068952;28;20036;-51
2022/07/22 00:53:34;;;;;;;7.90;2.50;;;15.80;99.90;;;;;;5069940;28;20072;-50
2022/07/22 00:56:01;;;;;;;9.63;2.63;;;15.70;99.90;;;;;;5069990;28;20384;-51
2022/07/22 00:58:27;;;;;;;7.30;2.83;;;15.80;99.90;;;;;;5069799;28;20029;-51
2022/07/22 01:00:53;;;;;;;10.30;2.22;;;15.80;99.90;;;;;;5069457;28;20045;-48
2022/07/22 01:03:19;;;;;;;12.38;2.40;;;15.80;99.90;;;;;;5068908;28;20088;-49
2022/07/22 01:05:44;;;;;;;8.77;2.50;;;15.80;99.90;;;;;;5069760;28;20379;-49
2022/07/22 01:08:10;;;;;;;8.52;2.40;;;15.80;99.90;;;;;;5069627;28;20052;-50
2022/07/22 01:10:36;;;;;;;7.60;2.40;;;15.70;99.90;;;;;;5069801;28;20052;-47
2022/07/22 01:13:02;;;;;;;9.30;2.40;;;15.80;99.90;;;;;;5069838;28;20502;-51
2022/07/22 01:15:27;;;;;;;7.53;2.20;;;15.80;99.90;;;;;;5069209;28;20131;-53
2022/07/22 01:17:53;;;;;;;9.02;2.67;;;15.80;99.90;;;;;;5069861;28;20127;-52
2022/07/22 01:20:19;;;;;;;8.35;2.78;;;15.80;99.90;;;;;;5072684;28;20041;-51
2022/07/22 01:22:44;;;;;;;9.55;2.25;;;15.70;99.90;;;;;;5073611;28;20040;-51
2022/07/22 01:25:11;;;;;;;8.63;2.42;;;15.80;99.90;;;;;;5073228;28;20032;-49
2022/07/22 01:27:37;;;;;;;11.05;2.97;;;15.80;99.90;;;;;;5073506;28;20062;-50
2022/07/22 01:30:04;;;;;;;7.55;2.80;;;15.80;99.90;;;;;;5073446;28;20036;-49
2022/07/22 01:32:30;;;;;;;9.40;2.50;;;15.80;99.90;;;;;;5072200;28;20036;-51
2022/07/22 01:34:56;;;;;;;9.52;2.78;;;15.80;99.90;;;;;;5073104;28;20044;-50
2022/07/22 01:37:22;;;;;;;8.82;2.33;;;15.80;99.90;;;;;;5072957;28;20036;-49
2022/07/22 01:39:48;;;;;;;6.88;2.42;;;15.80;99.90;;;;;;5073187;28;20044;-52
2022/07/22 01:42:14;;;;;;;7.32;2.20;;;15.80;99.90;;;;;;5073229;28;20049;-53
2022/07/22 01:44:40;;;;;;;11.50;2.78;;;15.70;99.90;;;;;;5071808;28;20036;-48
2022/07/22 01:47:05;;;;;;;8.68;2.80;;;15.80;99.90;;;;;;5073256;28;20103;-50
2022/07/22 01:49:33;;;;;;;6.60;2.05;;;15.80;99.90;;;;;;5072415;28;20476;-49
2022/07/22 01:51:58;;;;;;;12.27;2.97;;;15.70;99.90;;;;;;5071896;28;20480;-51
2022/07/22 01:54:24;;;;;;;7.85;2.67;;;15.70;99.90;;;;;;5071630;28;20039;-53
2022/07/22 01:56:49;;;;;;;7.72;2.45;;;15.70;99.90;;;;;;5072759;28;20051;-49
2022/07/22 01:59:15;;;;;;;8.63;2.53;;;15.80;99.90;;;;;;5072734;28;20048;-49
2022/07/22 02:01:41;;;;;;;7.03;2.60;;;15.70;99.90;;;;;;5073157;28;20040;-52
2022/07/22 02:04:06;;;;;;;8.40;2.47;;;15.80;99.90;;;;;;5072479;28;20043;-49
2022/07/22 02:06:32;;;;;;;10.15;2.40;;;15.70;99.90;;;;;;5072673;28;20484;-52
2022/07/22 02:08:58;;;;;;;7.13;2.58;;;15.70;99.90;;;;;;5072515;28;20040;-51
2022/07/22 02:11:24;;;;;;;7.75;2.70;;;15.80;99.90;;;;;;5072425;28;20102;-53
2022/07/22 02:13:50;;;;;;;6.88;2.25;;;15.80;99.90;;;;;;5072461;28;20032;-50
2022/07/22 02:16:16;;;;;;;6.80;2.58;;;15.70;99.90;;;;;;5072346;28;20114;-50
2022/07/22 02:18:41;;;;;;;8.48;2.83;;;15.70;99.90;;;;;;5072377;28;20495;-51
2022/07/22 02:21:07;;;;;;;8.70;2.40;;;15.80;99.90;;;;;;5072530;28;20042;-51
2022/07/22 02:23:33;;;;;;;8.27;2.28;;;15.70;99.90;;;;;;5072546;28;20087;-49
2022/07/22 02:25:58;;;;;;;6.90;2.65;;;15.80;99.90;;;;;;5072282;28;20032;-49
2022/07/22 02:28:24;;;;;;;8.57;2.50;;;15.80;99.90;;;;;;5072199;28;20047;-47
2022/07/22 02:30:50;;;;;;;6.57;2.67;;;15.80;99.90;;;;;;5071591;28;20479;-51
2022/07/22 02:33:15;;;;;;;8.52;2.90;;;15.80;99.90;;;;;;5072322;28;20090;-51
2022/07/22 02:35:41;;;;;;;7.18;2.60;;;15.60;99.90;;;;;;5070332;28;20052;-52
2022/07/22 02:38:07;;;;;;;6.05;2.45;;;15.70;99.90;;;;;;5072450;28;20383;-51
2022/07/22 02:40:33;;;;;;;6.55;2.72;;;15.70;99.90;;;;;;5070349;28;20667;-49
2022/07/22 02:42:58;;;;;;;7.60;2.15;;;15.70;99.90;;;;;;5053893;28;20040;-50
2022/07/22 02:45:24;;;;;;;11.77;2.80;;;15.70;99.90;;;;;;5071973;28;20033;-49
2022/07/22 02:47:53;;;;;;;9.05;2.60;;;15.70;99.90;;;;;;5071912;28;20043;-50
2022/07/22 02:50:19;;;;;;;9.32;2.45;;;15.70;99.90;;;;;;5070290;28;20032;-52
2022/07/22 02:56:20;;;;;;;8.13;2.40;;;15.70;99.90;;;;;;4335519;22;20578;-48
2022/07/22 02:58:51;;;;;;;9.52;2.15;;;15.70;99.90;;;;;;5026535;23;20137;-50
2022/07/22 03:01:18;;;;;;;7.75;2.78;;;15.70;99.90;;;;;;5012740;28;20551;-48
2022/07/22 03:03:44;;;;;;;7.85;2.70;;;15.60;99.90;;;;;;5012452;28;20089;-47
2022/07/22 03:06:10;;;;;;;8.25;2.83;;;15.60;99.90;;;;;;5012444;28;20042;-49
2022/07/22 03:08:36;;;;;;;7.20;2.83;;;15.70;99.90;;;;;;5012161;28;20034;-51
2022/07/22 03:11:02;;;;;;;7.38;2.70;;;15.80;99.90;;;;;;4994953;28;20030;-49
2022/07/22 03:13:28;;;;;;;9.25;2.70;;;15.70;99.90;;;;;;5012499;28;20046;-54
2022/07/22 03:15:54;;;;;;;12.07;2.70;;;15.80;99.90;;;;;;5012197;28;20048;-53
2022/07/22 03:18:20;;;;;;;8.25;2.60;;;15.60;99.90;;;;;;5012245;28;20033;-49
2022/07/22 03:20:45;;;;;;;6.88;2.47;;;15.80;99.90;;;;;;5012273;28;20041;-51
2022/07/22 03:23:11;;;;;;;10.27;2.65;;;15.60;99.90;;;;;;5011577;28;20045;-50
2022/07/22 03:25:38;;;;;;;8.82;2.40;;;15.70;99.90;;;;;;5012353;28;20042;-52
2022/07/22 03:28:04;;;;;;;9.05;2.65;;;15.70;99.90;;;;;;5012085;28;20334;-52
2022/07/22 03:30:30;;;;;;;6.90;2.40;;;15.70;99.90;;;;;;5012453;28;20614;-52
2022/07/22 03:32:55;;;;;;;6.18;2.03;;;15.70;99.90;;;;;;5011909;28;20060;-48
2022/07/22 03:35:21;;;;;;;7.53;2.60;;;15.70;99.90;;;;;;5011960;28;20121;-48
2022/07/22 03:37:47;;;;;;;12.80;2.72;;;15.70;99.90;;;;;;5011733;28;20042;-49
2022/07/22 03:40:13;;;;;;;6.40;2.20;;;15.80;99.90;;;;;;5010858;28;20100;-51
2022/07/22 03:42:38;;;;;;;7.35;2.13;;;15.70;99.90;;;;;;5011185;28;20081;-49
2022/07/22 03:45:04;;;;;;;7.85;2.38;;;15.70;99.90;;;;;;5011788;28;20168;-48
2022/07/22 03:47:30;;;;;;;6.35;2.55;;;15.70;99.90;;;;;;5011811;28;20037;-51
2022/07/22 03:49:58;;;;;;;6.50;2.15;;;15.70;99.90;;;;;;4994103;28;20038;-48
2022/07/22 03:52:24;;;;;;;10.20;2.35;;;15.60;99.90;;;;;;4993466;28;20081;-50
2022/07/22 03:54:50;;;;;;;7.68;2.00;;;15.70;99.90;;;;;;5011885;28;20383;-51
2022/07/22 03:57:16;;;;;;;6.72;2.40;;;15.60;99.90;;;;;;5011566;28;20112;-52
2022/07/22 03:59:41;;;;;;;5.10;2.28;;;15.70;99.90;;;;;;5011291;28;20066;-49
2022/07/22 04:02:07;;;;;;;6.65;1.95;;;15.60;99.90;;;;;;5011428;28;20125;-53
2022/07/22 04:04:33;;;;;;;7.35;2.13;;;15.60;99.90;;;;;;5011493;28;20057;-50
2022/07/22 04:06:58;;;;;;;9.52;2.40;;;15.70;99.90;;;;;;5011375;28;20489;-49
2022/07/22 04:09:24;;;;;;;6.35;2.80;;;15.60;99.90;;;;;;5011590;28;20034;-51
2022/07/22 04:11:52;;;;;;;6.32;1.98;;;15.60;99.90;;;;;;5011496;28;20041;-52
2022/07/22 04:14:18;;;;;;;8.07;2.40;;;15.60;99.90;;;;;;5011403;28;20412;-49
2022/07/22 04:16:44;;;;;;;6.68;2.35;;;15.60;99.90;;;;;;5011309;28;20496;-49
2022/07/22 04:19:10;;;;;;;5.78;2.47;;;15.70;99.90;;;;;;5011193;28;20046;-52
2022/07/22 04:21:36;;;;;;;7.63;2.70;;;15.70;99.90;;;;;;4993492;28;20041;-53
2022/07/22 04:24:02;;;;;;;8.27;2.60;;;15.60;99.90;;;;;;5008151;28;20507;-49
2022/07/22 04:26:28;;;;;;;8.27;3.05;;;15.60;99.90;;;;;;5011109;28;20038;-51
2022/07/22 04:28:54;;;;;;;8.07;3.00;;;15.60;99.90;;;;;;5010453;28;20057;-50
2022/07/22 04:31:19;;;;;;;6.55;2.75;;;15.70;99.90;;;;;;5010029;28;20393;-52
2022/07/22 04:33:45;;;;;;;7.38;2.90;;;15.60;99.90;;;;;;5010851;28;20120;-50
2022/07/22 04:36:11;;;;;;;10.32;3.17;;;15.60;99.90;;;;;;5010728;28;20084;-51
2022/07/22 04:38:36;;;;;;;8.07;2.90;;;15.60;99.90;;;;;;5010857;28;20145;-49
2022/07/22 04:41:02;;;;;;;8.50;3.00;;;15.70;99.90;;;;;;5010958;28;20128;-53
2022/07/22 04:43:28;;;;;;;10.13;2.90;;;15.60;99.90;;;;;;5010390;28;20045;-54
2022/07/22 04:45:55;;;;;;;7.72;2.92;;;15.60;99.90;;;;;;5010705;28;20033;-55
2022/07/22 04:48:21;;;;;;;9.35;3.10;;;15.60;99.90;;;;;;5010681;28;20041;-52
2022/07/22 04:50:46;;;;;;;9.27;3.40;;;15.70;99.90;;;;;;5010454;28;20038;-52
2022/07/22 04:53:12;;;;;;;9.43;3.20;;;15.60;99.90;;;;;;5010372;28;20120;-51
2022/07/22 04:55:38;;;;;;;8.40;2.70;;;15.60;99.90;;;;;;5014845;28;20034;-52
2022/07/22 04:58:03;;;;;;;8.82;2.85;;;15.70;99.90;;;;;;5014540;28;20397;-50
2022/07/22 05:00:29;;;;;;;7.25;2.67;;;15.60;99.90;;;;;;5014710;28;20038;-51
2022/07/22 05:02:55;;;;;;;7.22;2.72;;;15.60;99.90;;;;;;5014392;28;20046;-51
2022/07/22 05:05:21;;;;;;;6.10;2.40;;;15.70;99.90;;;;;;5014284;28;20122;-50
2022/07/22 05:07:47;;;;;;;7.60;3.13;;;15.60;99.90;;;;;;4996844;28;20084;-51
2022/07/22 05:10:13;;;;;;;12.55;3.45;;;15.60;99.90;;;;;;5014654;28;20477;-51
2022/07/22 05:12:38;;;;;;;6.03;2.10;;;15.60;99.90;;;;;;5014282;28;20033;-51
2022/07/22 05:15:05;;;;;;;8.90;2.80;;;15.60;99.90;;;;;;5014388;28;20053;-49
2022/07/22 05:17:30;;;;;;;7.25;2.67;;;15.70;99.90;;;;;;5014316;28;20456;-50
2022/07/22 05:19:56;;;;;;;8.57;2.45;;;15.80;99.90;;;;;;4996573;28;20082;-49
2022/07/22 05:22:22;;;;;;;6.53;1.90;;;15.80;99.90;;;;;;5013785;28;20116;-53
2022/07/22 05:24:47;;;;;;;5.53;1.90;;;15.80;99.90;;;;;;5014478;28;20482;-50
2022/07/22 05:27:13;;;;;;;6.20;1.80;;;15.80;99.90;;;;;;5014386;28;20037;-48
2022/07/22 05:29:39;;;;;;;5.15;1.90;;;15.90;99.90;;;;;;5013989;28;20115;-53
2022/07/22 05:32:05;;;;;;;5.97;2.22;;;15.90;99.90;;;;;;5014083;28;20038;-53
2022/07/22 05:34:30;;;;;;;8.52;2.28;;;15.90;99.90;;;;;;5014043;28;20083;-49
2022/07/22 05:36:56;;;;;;;5.88;2.13;;;15.90;99.90;;;;;;5013852;28;20397;-52
2022/07/22 05:39:22;;;;;;;5.53;1.75;;;16.00;99.90;;;;;;5014144;28;20053;-51
2022/07/22 05:41:48;;;;;;;3.95;1.65;;;15.90;99.90;;;;;;5013945;28;20547;-54
2022/07/22 05:44:13;;;;;;;6.97;1.98;;;16.00;99.90;;;;;;5014058;28;20065;-52
2022/07/22 05:46:39;;;;;;;6.15;2.05;;;16.00;99.90;;;;;;5013672;28;20506;-53
2022/07/22 05:49:06;;;;;;;4.40;1.83;;;16.00;99.90;;;;;;5013766;28;20041;-51
2022/07/22 05:51:32;;;;;;;4.82;1.75;;;16.00;99.90;;;;;;5013560;28;20046;-52
2022/07/22 05:53:58;;;;;;;5.55;1.85;;;16.10;99.90;;;;;;5013568;28;20041;-53
2022/07/22 05:56:23;;;;;;;6.70;2.33;;;16.20;99.90;;;;;;5013838;28;20396;-53
2022/07/22 05:58:49;;;;;;;7.93;2.20;;;16.20;99.90;;;;;;5013438;28;20053;-55
2022/07/22 06:01:15;;;;;;;7.63;2.13;;;16.20;99.90;;;;;;5013439;28;20048;-51
2022/07/22 06:03:41;;;;;;;5.43;2.00;;;16.30;99.90;;;;;;5013400;28;20504;-50
2022/07/22 06:06:08;;;;;;;8.15;2.17;;;16.20;99.90;;;;;;5013153;28;20038;-51
2022/07/22 06:08:35;;;;;;;5.00;1.90;;;16.30;99.90;;;;;;5013750;28;20381;-49
2022/07/22 06:11:00;;;;;;;7.15;2.00;;;16.30;99.90;;;;;;5013531;28;20367;-50
2022/07/22 06:13:27;;;;;;;6.50;2.10;;;16.40;99.90;;;;;;4995544;28;20124;-49
2022/07/22 06:15:52;;;;;;;6.25;2.20;;;16.40;99.90;;;;;;5013457;28;20381;-51
2022/07/22 06:18:18;;;;;;;3.90;1.60;;;16.40;99.90;;;;;;5013111;28;20046;-52
2022/07/22 06:20:44;;;;;;;5.82;1.85;;;16.40;99.90;;;;;;5013582;28;20041;-50
2022/07/22 06:23:10;;;;;;;8.07;1.80;;;16.40;99.90;;;;;;5012750;28;20493;-50
2022/07/22 06:25:36;;;;;;;10.38;1.98;;;16.40;99.90;;;;;;5013235;28;20038;-49
2022/07/22 06:28:02;;;;;;;8.27;1.98;;;16.40;99.90;;;;;;5011930;28;20462;-51
2022/07/22 06:30:28;;;;;;;6.13;1.80;;;16.30;99.90;;;;;;5012993;28;20065;-51
2022/07/22 06:32:54;;;;;;;6.25;2.03;;;16.40;99.90;;;;;;5012954;28;20504;-48
2022/07/22 06:35:19;;;;;;;4.55;1.60;;;16.40;99.90;;;;;;5013226;28;20056;-49
2022/07/22 06:37:45;;;;;;;5.50;1.45;;;16.50;99.90;;;;;;4979108;28;20041;-51
2022/07/22 06:40:11;;;;;;;5.43;1.85;;;16.50;99.90;;;;;;5012832;28;20046;-50
2022/07/22 06:42:38;;;;;;;5.97;1.92;;;16.50;99.90;;;;;;5012881;28;20042;-51
2022/07/22 06:45:04;;;;;;;6.22;2.05;;;16.60;99.90;;;;;;5011205;28;20038;-52
2022/07/22 06:47:31;;;;;;;4.95;1.90;;;16.60;99.90;;;;;;5012806;28;20029;-52
2022/07/22 06:49:57;;;;;;;5.97;1.85;;;16.70;99.90;;;;;;5012418;28;20029;-51
2022/07/22 06:52:23;;;;;;;4.78;1.50;;;16.70;99.90;;;;;;5012711;28;20045;-53
2022/07/22 06:54:49;;;;;;;8.50;1.80;;;16.70;99.90;;;;;;5012269;28;20042;-51
2022/07/22 06:57:15;;;;;;;6.45;1.63;;;16.70;99.90;;;;;;5012769;28;20425;-48
2022/07/22 06:59:40;;;;;;;5.43;1.65;;;16.70;99.90;;;;;;5012181;28;20046;-52
2022/07/22 07:02:06;;;;;;;5.60;1.65;;;16.70;99.90;;;;;;5012164;28;20132;-54
2022/07/22 07:04:32;;;;;;;5.88;1.80;;;16.70;99.90;;;;;;5012309;28;20561;-52
2022/07/22 07:06:58;;;;;;;6.72;1.58;;;16.70;99.90;;;;;;5012757;28;20113;-51
2022/07/22 07:09:23;;;;;;;7.80;1.95;;;16.70;99.90;;;;;;4994675;28;20045;-51
2022/07/22 07:11:49;;;;;;;10.43;2.28;;;16.80;99.90;;;;;;5012123;28;20038;-52
2022/07/22 07:14:15;;;;;;;5.38;1.67;;;16.90;99.90;;;;;;5012227;28;20043;-52
2022/07/22 07:16:41;;;;;;;6.53;1.60;;;16.90;99.90;;;;;;5011137;28;20030;-54
2022/07/22 07:19:06;;;;;;;6.35;2.10;;;16.90;99.90;;;;;;5012037;28;20049;-52
2022/07/22 07:21:32;;;;;;;7.30;1.70;;;17.00;99.90;;;;;;5012063;28;20053;-52
2022/07/22 07:23:58;;;;;;;7.22;1.70;;;16.90;99.90;;;;;;5011329;28;20048;-52
2022/07/22 07:26:24;;;;;;;13.88;1.92;;;17.00;99.90;;;;;;5011762;28;20049;-49
2022/07/22 07:28:49;;;;;;;6.32;1.83;;;17.00;99.90;;;;;;5011916;28;20038;-53
2022/07/22 07:31:16;;;;;;;9.00;2.92;;;17.00;99.90;;;;;;5011830;28;20034;-52
2022/07/22 07:33:42;;;;;;;11.35;3.35;;;17.10;99.90;;;;;;5011810;28;20037;-52
2022/07/22 07:36:08;;;;;;;15.05;4.80;;;17.00;99.90;;;;;;5011833;28;20041;-51
2022/07/22 07:38:34;;;;;;;10.15;4.50;;;17.10;99.90;;;;;;5011837;28;20080;-50
2022/07/22 07:40:59;;;;;;;11.18;3.13;;;17.20;99.90;;;;;;4994293;28;20045;-51
2022/07/22 07:43:25;;;;;;;8.32;2.95;;;17.30;99.90;;;;;;5010282;28;20053;-51
2022/07/22 07:45:51;;;;;;;7.32;2.38;;;17.30;99.90;;;;;;4994226;28;20040;-53
2022/07/22 07:48:16;;;;;;;6.50;2.30;;;17.30;99.90;;;;;;5011486;28;20037;-54
2022/07/22 07:50:42;;;;;;;7.15;2.20;;;17.40;99.90;;;;;;5011820;28;20096;-49
2022/07/22 07:53:08;;;;;;;6.50;2.22;;;17.50;99.90;;;;;;5011120;28;20042;-50
2022/07/22 07:55:37;;;;;;;10.00;2.53;;;17.50;99.90;;;;;;5011798;28;20096;-49
2022/07/22 07:58:03;;;;;;;6.40;2.15;;;17.50;99.90;;;;;;5011110;28;20129;-53
2022/07/22 08:00:32;;;;;;;5.95;2.03;;;17.70;99.90;;;;;;5011460;28;20120;-52
2022/07/22 08:02:57;;;;;;;5.82;1.65;;;17.80;99.90;;;;;;5011424;28;20401;-50
2022/07/22 08:05:25;;;;;;;6.15;1.58;;;17.80;99.90;;;;;;5010159;28;20463;-50
2022/07/22 08:07:51;;;;;;;4.88;1.20;;;17.90;99.90;;;;;;4993582;28;20037;-51
2022/07/22 08:10:17;;;;;;;4.43;1.23;;;17.90;99.90;;;;;;5010018;28;20397;-50
2022/07/22 08:12:43;;;;;;;4.88;1.33;;;18.10;99.90;;;;;;5011148;28;20050;-47
2022/07/22 08:15:10;;;;;;;6.50;1.30;;;18.10;99.90;;;;;;5011064;28;20033;-52
2022/07/22 08:17:36;;;;;;;5.53;1.20;;;18.20;99.90;;;;;;5009614;28;20046;-49
2022/07/22 08:20:03;;;;;;;3.42;1.17;;;18.30;99.90;;;;;;5010927;28;20042;-49
2022/07/22 08:22:30;;;;;;;4.82;1.40;;;18.30;99.90;;;;;;5011030;28;20508;-48
2022/07/22 08:24:56;;;;;;;6.30;1.33;;;18.20;99.90;;;;;;4993259;28;20042;-52
2022/07/22 08:27:21;;;;;;;3.47;1.25;;;18.20;99.90;;;;;;5010770;28;20042;-49
2022/07/22 08:29:47;;;;;;;5.65;1.50;;;18.20;99.90;;;;;;5010789;28;20084;-49
2022/07/22 08:32:13;;;;;;;3.55;0.90;;;18.20;99.90;;;;;;5010654;28;20030;-48
2022/07/22 08:34:39;;;;;;;4.18;1.30;;;18.10;99.90;;;;;;5011009;28;20103;-49
2022/07/22 08:37:04;;;;;;;7.43;1.55;;;18.20;99.90;;;;;;5011047;28;20046;-49
2022/07/22 08:39:30;;;;;;;4.30;1.23;;;18.20;99.90;;;;;;5010920;28;20069;-49
2022/07/22 08:41:57;;;;;;;3.65;1.40;;;18.20;99.90;;;;;;5010698;28;20065;-50
2022/07/22 08:44:23;;;;;;;7.43;1.75;;;18.20;99.90;;;;;;5010859;28;20120;-54
2022/07/22 08:46:48;;;;;;;3.50;0.98;;;18.20;99.90;;;;;;5010648;28;20128;-53
2022/07/22 08:49:17;;;;;;;5.82;1.10;;;18.20;99.90;;;;;;5010235;28;20038;-49
2022/07/22 08:51:43;;;;;;;4.90;1.17;;;18.10;99.90;;;;;;5010778;28;20065;-51
2022/07/22 08:54:09;;;;;;;3.47;1.25;;;18.20;99.90;;;;;;5010154;28;20489;-51
2022/07/22 08:56:37;;;;;;;6.88;1.13;;;18.10;99.90;;;;;;5010566;28;20283;-51
2022/07/22 08:59:03;;;;;;;3.88;1.30;;;18.10;99.90;;;;;;5010284;28;20058;-54
2022/07/22 09:01:29;;;;;;;12.40;1.55;;;18.10;99.90;;;;;;5010661;28;20046;-50
2022/07/22 09:03:56;;;;;;;4.70;1.25;;;18.20;99.90;;;;;;5010449;28;20075;-51
2022/07/22 09:06:32;;;;;;;5.25;1.30;;;18.20;99.90;;;;;;5010551;28;20038;-47
2022/07/22 09:09:04;;;;;;;7.43;1.55;;;18.30;99.90;;;;;;5010648;28;20489;-51
2022/07/22 09:11:31;;;;;;;4.63;1.23;;;18.50;99.90;;;;;;5010414;28;20048;-51
2022/07/22 09:13:58;;;;;;;7.82;1.38;;;18.60;99.90;;;;;;5009545;28;20034;-50
2022/07/22 09:16:41;;;;;;;3.53;1.00;;;18.50;99.90;;;;;;5009787;28;20038;-50
2022/07/22 09:19:07;;;;;;;3.90;1.10;;;18.70;99.90;;;;;;5009826;28;20497;-49
2022/07/22 09:21:36;;;;;;;3.75;1.20;;;18.80;99.90;;;;;;5009663;28;20582;-52
2022/07/22 09:24:03;;;;;;;4.55;1.20;;;18.90;99.90;;;;;;5008984;28;20519;-50
2022/07/22 09:26:35;;;;;;;2.88;0.90;;;18.90;99.90;;;;;;5009902;28;20038;-50
2022/07/22 09:29:01;;;;;;;4.30;1.10;;;18.80;99.90;;;;;;5009649;28;20371;-46
2022/07/22 09:31:30;;;;;;;6.38;1.30;;;18.90;99.90;;;;;;5009754;28;20038;-50
2022/07/22 09:33:57;;;;;;;4.97;1.27;;;18.90;99.90;;;;;;5009386;28;20037;-51
2022/07/22 09:36:22;;;;;;;4.88;1.15;;;19.00;99.90;;;;;;5009757;28;20046;-50
2022/07/22 09:38:48;;;;;;;5.05;0.88;;;19.20;99.90;;;;;;4990367;28;20072;-51
2022/07/22 09:41:14;;;;;;;2.78;0.90;;;19.10;99.90;;;;;;5013032;28;20381;-54
2022/07/22 09:43:40;;;;;;;5.25;1.30;;;19.00;99.90;;;;;;5013269;28;20037;-47
2022/07/22 09:46:06;;;;;;;3.35;1.00;;;19.20;99.90;;;;;;5013542;28;20113;-48
2022/07/22 09:48:32;;;;;;;3.05;1.00;;;19.20;99.90;;;;;;5012948;28;20048;-47
2022/07/22 09:50:58;;;;;;;5.88;0.88;;;19.30;99.90;;;;;;5013050;28;20082;-53
2022/07/22 09:53:29;;;;;;;3.78;0.93;;;19.40;99.90;;;;;;5012502;28;20041;-52
2022/07/22 09:56:03;;;;;;;3.45;0.90;;;19.40;99.90;;;;;;5012990;28;20505;-48
2022/07/22 09:58:29;;;;;;;4.60;0.80;;;19.30;99.90;;;;;;5002647;28;20115;-52
2022/07/22 10:00:59;;;;;;;3.35;0.82;;;19.40;99.90;;;;;;5032366;28;20057;-52
2022/07/22 10:03:32;;;;;;;4.53;1.30;;;19.30;99.90;;;;;;5032617;28;20052;-53
2022/07/22 10:05:59;;;;;;;3.65;1.17;;;19.30;99.90;;;;;;5032486;28;20088;-53
2022/07/22 10:08:27;;;;;;;6.07;1.10;;;19.30;99.90;;;;;;5032715;28;20120;-53
2022/07/22 10:10:57;;;;;;;5.28;0.88;;;19.40;99.90;;;;;;5032345;28;20442;-45
2022/07/22 10:13:23;;;;;;;8.43;1.55;;;19.50;99.90;;;;;;5032245;28;20029;-50
2022/07/22 10:15:49;;;;;;;4.95;1.00;;;19.40;99.90;;;;;;5032393;28;20041;-46
2022/07/22 10:18:18;;;;;;;3.80;0.90;;;19.60;99.90;;;;;;5014530;28;20460;-50
2022/07/22 10:20:43;;;;;;;4.30;1.05;;;19.50;99.90;;;;;;5032296;28;20143;-49
2022/07/22 10:23:11;;;;;;;3.55;1.00;;;19.60;99.90;;;;;;5031654;28;20046;-49
2022/07/22 10:26:06;;;;;;;3.92;0.90;;;19.90;99.90;;;;;;5032367;28;20080;-50
2022/07/22 10:28:35;;;;;;;3.55;0.90;;;19.80;99.90;;;;;;5014964;28;20049;-49
2022/07/22 10:31:23;;;;;;;2.78;0.95;;;19.70;99.90;;;;;;5031565;28;20128;-52
2022/07/22 10:33:54;;;;;;;3.92;0.93;;;19.60;99.90;;;;;;5032369;28;20473;-49
2022/07/22 10:36:38;;;;;;;4.43;0.80;;;19.60;99.90;;;;;;5032072;28;20476;-50
2022/07/22 10:39:06;;;;;;;2.60;0.90;;;19.70;99.90;;;;;;5031997;28;20457;-51
2022/07/22 10:41:37;;;;;;;7.65;1.33;;;19.70;99.90;;;;;;5031796;28;20084;-51
2022/07/22 10:44:03;;;;;;;3.38;1.13;;;19.70;99.90;;;;;;5031723;28;20041;-50
2022/07/22 10:46:48;;;;;;;4.03;1.13;;;19.50;99.90;;;;;;5031899;28;20477;-48
2022/07/22 10:49:16;;;;;;;4.32;0.90;;;19.70;99.90;;;;;;5031760;28;20042;-50
2022/07/22 10:52:07;;;;;;;2.80;0.80;;;19.70;99.90;;;;;;5030257;28;20064;-53
2022/07/22 10:54:33;;;;;;;2.83;1.08;;;19.50;99.90;;;;;;5030934;28;20041;-52
2022/07/22 10:57:02;;;;;;;4.22;1.30;;;19.50;99.90;;;;;;5031655;28;20040;-50
2022/07/22 10:59:28;;;;;;;3.92;1.15;;;19.60;99.90;;;;;;5031197;28;20057;-49
2022/07/22 11:01:54;;;;;;;8.00;1.20;;;19.60;99.90;;;;;;5031318;28;20532;-48
2022/07/22 11:04:24;;;;;;;3.90;1.02;;;19.50;99.90;;;;;;5031046;28;20481;-47
2022/07/22 11:06:54;;;;;;;4.72;1.00;;;19.70;99.90;;;;;;5031526;28;20056;-51
2022/07/22 11:09:23;;;;;;;5.90;1.42;;;19.60;99.90;;;;;;5031262;28;20087;-50
2022/07/22 11:11:54;;;;;;;4.22;1.40;;;19.40;99.90;;;;;;5031421;28;20038;-49
2022/07/22 11:14:31;;;;;;;3.72;1.20;;;19.40;99.90;;;;;;5031063;28;20041;-53
2022/07/22 11:17:05;;;;;;;3.72;1.20;;;19.40;99.90;;;;;;5031567;28;20045;-50
2022/07/22 11:19:32;;;;;;;3.40;1.20;;;19.40;99.90;;;;;;5031218;28;20053;-50
2022/07/22 11:22:17;;;;;;;4.93;1.40;;;19.30;99.90;;;;;;5031393;28;20485;-51
2022/07/22 11:24:47;;;;;;;5.13;1.10;;;19.40;99.90;;;;;;5030580;28;20084;-52
2022/07/22 11:27:18;;;;;;;3.33;1.00;;;19.60;99.90;;;;;;5030869;28;20065;-51
2022/07/22 11:29:49;;;;;;;3.70;0.88;;;19.70;99.90;;;;;;5030885;28;20037;-49
2022/07/22 11:32:14;;;;;;;3.63;1.38;;;19.80;99.90;;;;;;5030975;28;20029;-52
2022/07/22 11:34:44;;;;;;;5.45;1.08;;;19.80;99.90;;;;;;5030698;28;20533;-49
2022/07/22 11:37:11;;;;;;;4.68;0.90;;;19.80;99.90;;;;;;5030850;28;20065;-52
2022/07/22 11:39:37;;;;;;;4.30;1.40;;;19.90;99.90;;;;;;5013053;28;20041;-50
2022/07/22 11:42:03;;;;;;;5.25;1.00;;;20.00;99.90;;;;;;5030790;28;20037;-54
2022/07/22 11:44:32;;;;;;;3.38;1.00;;;19.80;99.90;;;;;;5030639;28;20042;-50
2022/07/22 11:46:59;;;;;;;2.35;1.00;;;19.70;99.90;;;;;;5030922;28;20033;-51
2022/07/22 11:49:28;;;;;;;2.25;0.93;;;19.80;99.90;;;;;;5030676;28;20067;-53
2022/07/22 11:51:54;;;;;;;6.30;1.08;;;19.50;99.90;;;;;;5030717;28;20068;-50
2022/07/22 11:54:20;;;;;;;4.38;0.80;;;19.40;99.90;;;;;;5029806;28;20033;-51
2022/07/22 11:56:45;;;;;;;7.45;1.23;;;19.60;99.90;;;;;;5030629;28;20041;-53
2022/07/22 11:59:14;;;;;;;3.97;1.23;;;19.70;99.90;;;;;;5030145;28;20045;-52
2022/07/22 12:01:40;;;;;;;3.92;0.75;;;19.80;99.90;;;;;;5030259;28;20492;-54
2022/07/22 12:04:08;;;;;;;2.17;0.88;;;19.90;99.90;;;;;;5029845;28;20040;-47
2022/07/22 12:06:38;;;;;;;4.05;0.85;;;19.80;99.90;;;;;;5030124;28;20045;-50
2022/07/22 12:09:07;;;;;;;2.95;0.90;;;19.90;99.90;;;;;;5030129;28;20037;-52
2022/07/22 12:11:35;;;;;;;5.90;0.90;;;19.90;99.90;;;;;;5030011;28;20162;-51
2022/07/22 12:14:13;;;;;;;4.05;1.08;;;20.00;99.90;;;;;;5029829;28;20034;-52
2022/07/22 12:16:40;;;;;;;4.93;0.88;;;20.00;99.90;;;;;;5030265;28;20119;-54
2022/07/22 12:19:07;;;;;;;6.18;1.67;;;20.00;99.90;;;;;;5028274;28;20048;-54
2022/07/22 12:21:35;;;;;;;4.38;0.80;;;20.10;99.90;;;;;;5030085;28;20146;-50
2022/07/22 12:24:06;;;;;;;2.50;1.00;;;19.90;99.90;;;;;;5029519;28;20046;-53
2022/07/22 12:26:38;;;;;;;3.25;1.35;;;19.90;99.90;;;;;;5030128;28;20041;-53
2022/07/22 12:29:16;;;;;;;6.07;0.98;;;19.80;99.90;;;;;;5029836;28;20033;-52
2022/07/22 12:31:47;;;;;;;2.70;0.70;;;19.80;99.90;;;;;;5029574;28;20369;-53
2022/07/22 12:34:13;;;;;;;2.17;0.70;;;19.60;99.90;;;;;;5030097;28;20365;-53
2022/07/22 12:36:42;;;;;;;2.38;0.68;;;19.70;99.90;;;;;;5029696;28;20048;-50
2022/07/22 12:39:16;;;;;;;2.38;0.80;;;19.60;99.90;;;;;;5029752;28;20043;-51
2022/07/22 12:41:49;;;;;;;;;;;19.60;99.90;;;;;;5030271;28;20053;-52
2022/07/22 12:44:23;;;;;;;2.63;0.60;;;19.80;99.90;;;;;;5029628;28;19925;-51
2022/07/22 12:46:50;;;;;;;;;;;19.60;99.90;;;;;;5029988;28;20041;-49
2022/07/22 12:49:20;;;;;;;1.92;0.60;;;19.60;99.90;;;;;;5029909;28;19921;-52